Tiempo atmosférico en la estación meteorológica de Villardeciervos, Zamora (850 m.)



Fecha
DESCASC
Temp. máxima en grados centígrados (hora)
DESCASC
Temp. mínima en grados centígrados (hora)
DESCASC
Temp. media en grados centígrados
DESCASC
Racha de viento máxima en m/sg (hora)
DESCASC
Velocidad máxima media en intervalos de 10 minutos(hora)
DESCASC
Precipitaciones diarias en mm
DESCASC
Precipitaciones de 00:00 a 06:00 en mm
DESCASC
Precipitaciones de 06:00 a 12:00 en mm
DESCASC
Precipitaciones de 12:00 a 18:00 en mm
DESCASC
Precipitaciones de 18:00 a 24:00 en mm
DESCASC
15-08-2019 32.2 (17:40) 9.6 (07:50) 20.9 8.89 (14:30) 4.44 (18:50) 0 0 0 0 0
14-08-2019 32.3 (16:50) 6.7 (00:00) 19.5 8.89 (17:20) 3.61 (17:20) 0 0 0 0 0
13-08-2019 27.4 (17:40) 3.7 (00:00) 15.5 6.94 (16:50) 3.33 (15:20) 0 0 0 0 0
12-08-2019 23.6 (16:10) 3 (00:00) 13.3 8.61 (12:30) 3.89 (13:40) 0 0 0 0 0
11-08-2019 24.2 (15:40) 9.5 (00:00) 16.9 12.22 (17:50) 7.22 (18:20) 0.2 0.2 0 0 0
10-08-2019 25.3 (16:40) 10.9 (00:00) 18.1 9.44 (20:30) 5 (01:10) 0 0 0 0 0
09-08-2019 22.9 (15:50) 14.8 (00:00) 18.8 14.17 (15:50) 6.94 (15:30) 2.4 1.2 1.2 0 0
08-08-2019 26 (15:30) 16.6 (00:00) 21.3 14.17 (16:30) 7.5 (16:00) 0.4 0 0.4 0 0
07-08-2019 22.6 (12:00) 14 (00:00) 18.3 11.39 (15:10) 5.83 (15:20) 2.6 0 0 1.2 1.4
06-08-2019 28.7 (15:30) 10.2 (00:00) 19.5 10.56 (17:40) 6.11 (18:40) 0 0 0 0 0
05-08-2019 32.2 (16:50) 9.8 (00:00) 21 9.72 (17:20) 4.72 (19:50) 0 0 0 0 0
04-08-2019 31 (16:10) 11 (00:00) 21 10.83 (16:50) 5.28 (16:20) 0 0 0 0 0
03-08-2019 33 (15:20) 11.1 (00:00) 22.1 11.94 (15:30) 5 (16:00) 0 0 0 0 0
02-08-2019 33.1 (17:00) 9.6 (00:00) 21.3 6.94 (17:40) 3.33 (17:40) 0 0 0 0 0
01-08-2019 30.6 (18:20) 7.7 (00:00) 19.2 8.89 (17:00) 4.17 (15:30) 0 0 0 0 0
31-07-2019 26.5 (17:30) 7.6 (00:00) 17 8.61 (13:30) 3.61 (15:20) 0 0 0 0 0
30-07-2019 27.3 (19:00) 3.8 (00:00) 15.5 7.22 (00:40) 3.89 (00:40) 0 0 0 0 0
29-07-2019 24.4 (15:50) 12.4 (00:00) 18.4 13.61 (13:40) 6.67 (09:00) 0 0 0 0 0
28-07-2019 27.9 (18:20) 6.6 (00:00) 17.2 9.17 (18:20) 4.17 (17:30) 0 0 0 0 0
27-07-2019 25.2 (18:20) 11.3 (00:00) 18.3 12.5 (09:10) 7.22 (09:00) 0.2 0 0.2 0 0
26-07-2019 26.6 (17:10) 9.5 (00:00) 18.1 11.67 (21:00) 6.11 (18:30) 0 0 0 0 0
25-07-2019 29.1 (16:00) 17.6 (00:00) 23.4 13.89 (16:10) 6.67 (15:30) 0 0 0 0 0
24-07-2019 33.2 (17:40) 14.3 (00:00) 23.8 11.39 (19:20) 5.83 (19:20) 0 0 0 0 0
23-07-2019 34.1 (16:20) 16.1 (00:00) 25.1 11.67 (19:10) 4.72 (18:40) 0 0 0 0 0
22-07-2019 36.2 (18:20) 12.5 (00:00) 24.4 16.39 (21:10) 8.33 (19:50) 1 0 0 0 1
21-07-2019 34.2 (18:10) 12 (00:00) 23.1 7.22 (16:30) 3.33 (16:20) 0 0 0 0 0
20-07-2019 31.4 (16:20) 9.9 (07:40) 20.6 11.11 (20:10) 5.56 (17:10) 0 0 0 0 0
19-07-2019 32.6 (17:30) 10.4 (00:00) 21.5 10 (15:40) 5.28 (16:20) 0 0 0 0 0

Gráficas

Temp. máximas Temp. mínimas Temp. medias Precipitaciones Rachas de viento máximas Velocidades máximas media en intervalos de 10 minutos

Datos horarios

Fecha y hora oficial Temperatura (ºC) Velocidad del viento (km/h) Dirección del viento Racha (km/h) Dirección de racha Precipitación (mm) Presión (hPa) Tendencia (hPa) Humedad (%)
2019-08-17 23:00:00 23.1 10 Sudoeste 23 Oeste 0 918.6 0.6 42
2019-08-17 22:00:00 24.5 12 Oeste 23 Oeste 0 918.3 -0.1 35
2019-08-17 21:00:00 27.4 10 Oeste 31 Oeste 0 918.1 -0.5 27
2019-08-17 20:00:00 29.6 17 Oeste 37 Oeste 0 918 -0.9 22
2019-08-17 19:00:00 30.5 19 Oeste 38 Sudoeste 0 918.4 -0.9 20
2019-08-17 18:00:00 31.2 15 Oeste 45 Sudoeste 0 918.6 -1.2 20
2019-08-17 17:00:00 31.3 19 Oeste 38 Oeste 0 918.9 -1.4 19
2019-08-17 16:00:00 31.5 15 Sudoeste 38 Sudoeste 0 919.3 -1.3 18
2019-08-17 15:00:00 30.9 17 Sudoeste 35 Sudoeste 0 919.8 -1.5 20
2019-08-17 14:00:00 29.3 15 Sudoeste 34 Sudoeste 0 920.3 -1.3 23
2019-08-17 13:00:00 29.4 4 Sur 14 Noroeste 0 920.6 -1.1 23
2019-08-17 12:00:00 26.7 4 Sur 9 Norte 0 921.3 -0.4 30
2019-08-17 11:00:00 23.7 2 Este 11 Norte 0 921.6 0.2 37
2019-08-17 10:00:00 20.2 0 Calma 7 Norte 0 921.7 0.7 43
2019-08-17 09:00:00 14 0 Calma 10 Sudeste 0 921.7 0.6 60
2019-08-17 08:00:00 7.6 5 Sur 9 Sur 0 921.4 0.3 79
2019-08-17 07:00:00 8.3 0 Calma 9 Sur 0 921 -0.1 77
2019-08-17 06:00:00 10.1 3 Sudeste 11 Sudeste 0 921.1 -0.4 73
2019-08-17 05:00:00 10.9 3 Norte 8 Noroeste 0 921.1 -0.5 74
2019-08-17 04:00:00 13.3 3 Nordeste 13 Sudoeste 0 921.1 -0.4 65
2019-08-17 03:00:00 12.8 4 Sur 8 Sur 0 921.5 -0.3 69
2019-08-17 02:00:00 15.9 6 Norte 9 Sudoeste 0 921.6 0.2 62
2019-08-17 01:00:00 18.2 5 Sudoeste 14 Sudoeste 0 921.5 0.6 56
2019-08-17 00:00:00 21.6 9 Sudoeste 34 Oeste 0 921.8 1.1 44
2019-08-16 23:00:00 22.7 12 Oeste 35 Oeste 0 921.4 1 39
2019-08-16 22:00:00 24.2 13 Oeste 29 Oeste 0 920.9 0.6 31
2019-08-16 21:00:00 26.4 15 Oeste 30 Oeste 0 920.7 0.2 26
2019-08-16 20:00:00 30.3 15 Oeste 30 Oeste 0 920.4 -0.4 19
2019-08-16 19:00:00 31.4 17 Sudoeste 34 Sudoeste 0 920.3 -0.8 19
2019-08-16 18:00:00 32.3 14 Oeste 34 Sudoeste 0 920.5 -1.1 17
2019-08-16 17:00:00 32.2 14 Oeste 31 Noroeste 0 920.8 -1.3 19
2019-08-16 16:00:00 32 12 Oeste 30 Oeste 0 921.1 -1.4 19
2019-08-16 15:00:00 30.9 9 Oeste 30 Sudoeste 0 921.6 -1.4 18
2019-08-16 14:00:00 29.7 8 Sudoeste 23 Sudoeste 0 922.1 -1.1 23
2019-08-16 13:00:00 28.5 5 Sudoeste 21 Sudoeste 0 922.5 -0.9 28
2019-08-16 12:00:00 26.7 4 Noroeste 13 Oeste 0 923 -0.3 35
2019-08-16 11:00:00 24 4 Norte 9 Norte 0 923.2 -0.3 42
2019-08-16 10:00:00 20 0 Calma 8 Norte 0 923.4 0.2 58
2019-08-16 09:00:00 15.3 0 Calma 10 Sur 0 923.3 -0.1 75
2019-08-16 08:00:00 10 3 Sur 5 Sudeste 0 923.5 -0.2 86
2019-08-16 07:00:00 11.2 3 Sur 6 Sur 0 923.2 -0.6 88
2019-08-16 06:00:00 10.6 5 Sur 7 Sur 0 923.4 -0.6 84
2019-08-16 05:00:00 11.9 3 Sur 6 Sudeste 0 923.7 -0.6 82
2019-08-16 04:00:00 13.8 0 Calma 5 Noroeste 0 923.8 -0.4 77
2019-08-16 03:00:00 15.8 0 Calma 5 Sudoeste 0 924 0.4 71
2019-08-16 02:00:00 17.3 3 Norte 9 Este 0 924.3 0.4 65
2019-08-16 01:00:00 18.5 2 Sur 22 Este 0 924.2 1.1 61
2019-08-16 00:00:00 19.6 4 Sur 10 Sudoeste 0 923.6 1 55
2019-08-15 23:00:00 21.3 4 Sur 9 Oeste 0 923.9 1.6 49
2019-08-15 22:00:00 24.7 5 Oeste 22 Oeste 0 923.1 0.8 39
2019-08-15 21:00:00 27.5 10 Noroeste 24 Noroeste 0 922.6 0.2 31
2019-08-15 20:00:00 29.6 13 Oeste 27 Noroeste 0 922.3 -0.6 27
2019-08-15 19:00:00 30.8 15 Oeste 28 Oeste 0 922.3 -1.1 27
2019-08-15 18:00:00 30.4 11 Sudoeste 28 Sudoeste 0 922.4 -1.5 26
2019-08-15 17:00:00 31.5 12 Sudoeste 30 Sudoeste 0 922.9 -1.4 24
2019-08-15 16:00:00 30.7 8 Sudoeste 31 Sur 0 923.4 -1.4 25
2019-08-15 15:00:00 29 13 Sudoeste 32 Oeste 0 923.9 -1.5 26
2019-08-15 14:00:00 28.5 8 Sur 22 Sudoeste 0 924.3 -1.2 27
2019-08-15 13:00:00 27.4 8 Sudeste 18 Sudeste 0 924.8 -0.9 32
2019-08-15 12:00:00 25.2 5 Sudeste 15 Este 0 925.4 -0.2 35
2019-08-15 11:00:00 22.6 3 Este 9 Este 0 925.5 0.3 42
2019-08-15 10:00:00 18.7 2 Norte 7 Noroeste 0 925.7 0.9 62
2019-08-15 09:00:00 14.9 4 Norte 7 Sudeste 0 925.6 1 73
2019-08-15 08:00:00 9.8 3 Sudeste 13 Noroeste 0 925.2 0.7 87
2019-08-15 07:00:00 9.9 6 Sudeste 9 Sur 0 924.8 0.5 82
2019-08-15 06:00:00 11.6 3 Sudeste 9 Noroeste 0 924.6 0.5 79
2019-08-15 05:00:00 13.5 6 Noroeste 10 Sur 0 924.5 0.5 76
2019-08-15 04:00:00 13.3 6 Sudeste 11 Sudeste 0 924.3 0.1 71
2019-08-15 03:00:00 14.2 2 Este 8 Sudoeste 0 924.1 0 70
2019-08-15 02:00:00 15.8 5 Sur 9 Sudoeste 0 924 0 66
2019-08-15 01:00:00 17.8 6 Sur 12 Sur 0 924.2 0.8 60
2019-08-15 00:00:00 18.9 5 Sur 12 Sudeste 0 924.1 1.3 61
2019-08-14 23:00:00 21 5 Sur 21 Oeste 0 924 1.6 57
2019-08-14 22:00:00 23.7 9 Oeste 23 Oeste 0 923.4 0.9 48
2019-08-14 21:00:00 27.1 13 Oeste 25 Noroeste 0 922.8 0.3 37
2019-08-14 20:00:00 29.8 8 Nordeste 20 Este 0 922.4 -0.2 29
2019-08-14 19:00:00 28.5 7 Sudoeste 19 Oeste 0 922.5 -0.6 33
2019-08-14 18:00:00 29.4 8 Oeste 32 Sudoeste 0 922.5 -1.3 31
2019-08-14 17:00:00 31.7 9 Sudoeste 27 Noroeste 0 922.6 -1.6 26
2019-08-14 16:00:00 30.9 6 Noroeste 25 Oeste 0 923.1 -1.5 25
2019-08-14 15:00:00 29.5 6 Sudoeste 26 Sudoeste 0 923.8 -0.7 26
2019-08-14 14:00:00 28.5 9 Oeste 23 Oeste 0 924.2 -0.6 26
2019-08-14 13:00:00 27.4 6 Oeste 20 Norte 0 924.6 -0.6 27
2019-08-14 12:00:00 25.2 5 Sur 16 Sudoeste 0 924.5 -0.5 26
2019-08-14 11:00:00 22 3 Sudeste 10 Sudeste 0 924.8 0.2 33
2019-08-14 10:00:00 17.9 2 Nordeste 10 Norte 0 925.2 0.8 48
2019-08-14 09:00:00 12.8 4 Norte 10 Sudeste 0 925 0.5 66
2019-08-14 08:00:00 7 7 Sur 9 Sur 0 924.6 0.1 81
2019-08-14 07:00:00 8.2 3 Sur 9 Sur 0 924.4 -0.1 77
2019-08-14 06:00:00 7.7 2 Sudeste 8 Sudeste 0 924.5 0.1 79
2019-08-14 05:00:00 8 2 Sudoeste 5 Noroeste 0 924.5 -0.2 76
2019-08-14 04:00:00 8.9 3 Sur 7 Sudeste 0 924.5 0.1 73
2019-08-14 03:00:00 10.2 0 Calma 7 Sudeste 0 924.4 0 70
2019-08-14 02:00:00 11.8 4 Sudeste 9 Sur 0 924.7 0.5 63
2019-08-14 01:00:00 14.2 4 Sur 9 Sur 0 924.4 0.9 55
2019-08-14 00:00:00 15.8 4 Sur 9 Sur 0 924.4 1.1 47
2019-08-13 23:00:00 17.9 5 Sudeste 15 Oeste 0 924.2 1.1 39
2019-08-13 22:00:00 20.8 10 Sudoeste 18 Oeste 0 923.5 0.4 30
2019-08-13 21:00:00 24.1 8 Oeste 22 Sudoeste 0 923.3 0.1 25
2019-08-13 20:00:00 26.2 11 Sudoeste 20 Oeste 0 923.1 -0.5 19
2019-08-13 19:00:00 26.9 10 Oeste 22 Noroeste 0 923.1 -1 17
2019-08-13 18:00:00 26.7 10 Oeste 22 Oeste 0 923.2 -1.4 18
2019-08-13 17:00:00 26.2 9 Sudeste 25 Oeste 0 923.6 -1.5 19
2019-08-13 16:00:00 25.9 8 Noroeste 23 Norte 0 924.1 -1.5 25
2019-08-13 15:00:00 25.2 6 Noroeste 18 Norte 0 924.6 -1.3 27
2019-08-13 14:00:00 23 8 Noroeste 17 Oeste 0 925.1 -1.2 31
2019-08-13 13:00:00 20.8 4 Noroeste 17 Este 0 925.6 -0.9 36
2019-08-13 12:00:00 18.5 9 Este 21 Este 0 925.9 -0.4 43
2019-08-13 11:00:00 15.9 9 Este 20 Este 0 926.3 0 51
2019-08-13 10:00:00 13.9 6 Nordeste 13 Nordeste 0 926.5 0.7 61
2019-08-13 09:00:00 9.3 2 Sudeste 5 Sur 0 926.3 0.7 82
2019-08-13 08:00:00 4.3 4 Sur 5 Sudoeste 0 926.3 0.6 90
2019-08-13 07:00:00 4.3 3 Sur 4 Sudeste 0 925.8 -0.1 84
2019-08-13 06:00:00 5.9 0 Calma 5 Sur 0 925.6 -0.3 83
2019-08-13 05:00:00 7.2 3 Noroeste 5 Noroeste 0 925.7 -0.5 82
2019-08-13 04:00:00 8.5 3 Noroeste 6 Norte 0 925.9 -0.4 78
2019-08-13 03:00:00 9.8 2 Norte 5 Norte 0 925.9 -0.2 71
2019-08-13 02:00:00 11.1 2 Norte 13 Este 0 926.2 0.7 67
2019-08-13 01:00:00 12 4 Nordeste 12 Nordeste 0 926.3 1.4 63
2019-08-13 00:00:00 13.4 4 Este 9 Este 0 926.1 1.8 52
2019-08-12 23:00:00 14.1 3 Sudeste 7 Sudeste 0 925.5 1.9 47
2019-08-12 22:00:00 16.6 0 Calma 6 Este 0 924.9 1 43
2019-08-12 21:00:00 18.7 3 Sudeste 22 Este 0 924.3 0.2 32
2019-08-12 20:00:00 20.9 9 Sudeste 18 Sudeste 0 923.6 -0.5 26
2019-08-12 19:00:00 20.4 9 Sudeste 18 Sudeste 0 923.9 -0.6 27
2019-08-12 18:00:00 21.6 9 Sudeste 27 Sudeste 0 924.1 -0.9 24
2019-08-12 17:00:00 22 6 Sudeste 25 Este 0 924.1 -1 22
2019-08-12 16:00:00 23.1 9 Norte 27 Norte 0 924.5 -1.1 20
2019-08-12 15:00:00 22.7 13 Nordeste 28 Este 0 925 -0.8 21
2019-08-12 14:00:00 22.2 12 Norte 29 Nordeste 0 925.1 -0.6 21
2019-08-12 13:00:00 20.8 11 Nordeste 31 Nordeste 0 925.6 -0.2 21
2019-08-12 12:00:00 19.4 10 Norte 25 Noroeste 0 925.8 0.5 31
2019-08-12 11:00:00 17.1 4 Nordeste 13 Nordeste 0 925.7 0.6 43
2019-08-12 10:00:00 13.8 2 Norte 11 Sudeste 0 925.8 1.2 55
2019-08-12 09:00:00 7.7 0 Calma 8 Sudeste 0 925.3 1.1 82
2019-08-12 08:00:00 3.1 0 Calma 4 Sudeste 0 925.1 0.7 87
2019-08-12 07:00:00 3.5 3 Noroeste 5 Sur 0 924.6 0.3 88
2019-08-12 06:00:00 3.7 3 Sur 7 Sudeste 0 924.2 -0.3 86
2019-08-12 05:00:00 5 3 Sudeste 8 Noroeste 0 924.4 -0.1 81
2019-08-12 04:00:00 7.4 4 Sur 12 Sudoeste 0 924.3 -0.3 77
2019-08-12 03:00:00 7.4 6 Sur 10 Sur 0 924.5 0.1 76
2019-08-12 02:00:00 8.8 5 Sur 11 Sur 0 924.5 0.5 71
2019-08-12 01:00:00 10.1 6 Sur 10 Sur 0 924.6 1.3 66
2019-08-12 00:00:00 11.7 4 Sudeste 17 Oeste 0 924.4 1.6 60
2019-08-11 23:00:00 13.3 9 Oeste 27 Oeste 0 924 1.7 54
2019-08-11 22:00:00 14.3 9 Oeste 36 Noroeste 0 923.3 1.5 51
2019-08-11 21:00:00 16.3 15 Noroeste 40 Noroeste 0 922.8 1.4 46
2019-08-11 20:00:00 18.5 21 Noroeste 43 Oeste 0 922.3 0.8 41
2019-08-11 19:00:00 20.6 22 Oeste 42 Oeste 0 921.8 0.5 29
2019-08-11 18:00:00 22.1 21 Oeste 44 Noroeste 0 921.4 0.2 26
2019-08-11 17:00:00 22.4 22 Oeste 43 Oeste 0 921.5 0 25
2019-08-11 16:00:00 23.9 15 Noroeste 37 Sudoeste 0 921.3 -0.7 23
2019-08-11 15:00:00 23.2 8 Sur 31 Sudoeste 0 921.2 -1 24
2019-08-11 14:00:00 22 9 Sudoeste 31 Oeste 0 921.5 -0.8 24
2019-08-11 13:00:00 21 6 Sudoeste 30 Este 0 922 0 33
2019-08-11 12:00:00 17.8 6 Noroeste 16 Noroeste 0 922.2 0.5 61
2019-08-11 11:00:00 16.5 3 Norte 9 Nordeste 0 922.3 1.1 65
2019-08-11 10:00:00 14.4 2 Sudoeste 10 Noroeste 0 922 1.2 77
2019-08-11 09:00:00 11.7 0 Calma 6 Norte 0 921.7 0.8 87
2019-08-11 08:00:00 9.9 4 Sur 6 Sudoeste 0 921.2 0.1 88
2019-08-11 07:00:00 10.2 4 Sur 8 Este 0 920.8 -0.3 85
2019-08-11 06:00:00 11.8 2 Noroeste 9 Sur 0 920.9 -1.4 82
2019-08-11 05:00:00 12.9 2 Sur 13 Nordeste 0 921.1 -0.9 79
2019-08-11 04:00:00 13.7 3 Nordeste 21 Sudeste 0.2 921.1 -1 76
2019-08-11 03:00:00 14.6 9 Sudeste 21 Sudeste 0 922.3 0.3 69
2019-08-11 02:00:00 15.8 6 Oeste 13 Sur 0 922 -0.3 56
2019-08-11 01:00:00 15.4 5 Sudeste 9 Sudoeste 0 922.1 0.3 58
2019-08-11 00:00:00 16.3 5 Sudoeste 13 Sudoeste 0 922 0 53
2019-08-10 23:00:00 17.4 4 Noroeste 19 Oeste 0 922.3 0.4 50
2019-08-10 22:00:00 18.6 10 Oeste 25 Oeste 0 921.8 0 45
2019-08-10 21:00:00 19.7 12 Sudoeste 34 Sudoeste 0 922 0.1 42
2019-08-10 20:00:00 20.8 15 Sudoeste 29 Oeste 0 921.9 -0.3 39
2019-08-10 19:00:00 23.3 10 Oeste 28 Sudoeste 0 921.8 -0.8 29
2019-08-10 18:00:00 24.5 14 Oeste 31 Oeste 0 921.9 -1.2 25
2019-08-10 17:00:00 24.6 13 Sudoeste 27 Sudoeste 0 922.2 -1.4 22
2019-08-10 16:00:00 24.5 14 Sur 31 Sudoeste 0 922.6 -1.1 23
2019-08-10 15:00:00 23.8 9 Sur 26 Sur 0 923.1 -1.1 26
2019-08-10 14:00:00 22.7 12 Sur 31 Sur 0 923.6 -0.5 28
2019-08-10 13:00:00 21.8 8 Sudeste 22 Sudeste 0 923.7 -0.5 32
2019-08-10 12:00:00 21.1 5 Este 17 Sudeste 0 924.2 0.2 34
2019-08-10 11:00:00 19 4 Sudoeste 11 Sudeste 0 924.1 0.4 42
2019-08-10 10:00:00 17.3 4 Este 9 Este 0 924.2 1.1 49
2019-08-10 09:00:00 14.2 4 Sudeste 9 Sudeste 0 924 1 65
2019-08-10 08:00:00 11.1 6 Sur 10 Oeste 0 923.7 0.8 75
2019-08-10 07:00:00 12.6 5 Oeste 14 Oeste 0 923.1 0.4 69
2019-08-10 06:00:00 13.5 5 Oeste 17 Sudoeste 0 923 0.2 72
2019-08-10 05:00:00 13.9 8 Sudoeste 17 Oeste 0 922.9 0.1 73
2019-08-10 04:00:00 14.4 8 Oeste 21 Sudoeste 0 922.7 -0.1 71
2019-08-10 03:00:00 14.6 11 Sudoeste 23 Sudoeste 0 922.8 0.4 70
2019-08-10 02:00:00 14.9 10 Sudoeste 28 Sudoeste 0 922.8 0.4 68
2019-08-10 01:00:00 15.1 17 Sudoeste 31 Sudoeste 0 922.8 0.7 65
2019-08-10 00:00:00 15.2 15 Sudoeste 25 Oeste 0 922.4 1 64
2019-08-09 23:00:00 15.8 13 Oeste 24 Noroeste 0 922.4 1.6 61
2019-08-09 22:00:00 16.5 10 Noroeste 29 Oeste 0 922.1 1.6 59
2019-08-09 21:00:00 18.1 12 Oeste 34 Oeste 0 921.4 1 54
2019-08-09 20:00:00 20.6 18 Oeste 42 Oeste 0 920.8 0.5 44
2019-08-09 19:00:00 21.7 22 Oeste 43 Sudoeste 0 920.5 0.2 40
2019-08-09 18:00:00 22.3 17 Sudoeste 46 Oeste 0 920.4 0.4 39
2019-08-09 17:00:00 22.6 20 Oeste 47 Sudoeste 0 920.3 0.3 37
2019-08-09 16:00:00 21.9 21 Oeste 51 Noroeste 0 920.3 0.5 43
2019-08-09 15:00:00 22.2 22 Oeste 46 Oeste 0 920 0.4 44
2019-08-09 14:00:00 21.1 21 Oeste 44 Oeste 0 920 0.9 45
2019-08-09 13:00:00 19.4 18 Oeste 39 Oeste 0 919.8 1.3 53
2019-08-09 12:00:00 19 19 Oeste 42 Oeste 0 919.6 1.7 55
2019-08-09 11:00:00 17.3 15 Oeste 42 Oeste 0 919.1 1.7 66
2019-08-09 10:00:00 16.2 18 Oeste 35 Oeste 0 918.5 1.8 76
2019-08-09 09:00:00 14.9 10 Oeste 32 Oeste 0 917.9 2.2 85
2019-08-09 08:00:00 14.9 13 Sudoeste 43 Oeste 0.4 917.4 1.5 86
2019-08-09 07:00:00 16.5 21 Oeste 45 Oeste 0.8 916.7 0.3 85
2019-08-09 06:00:00 18.5 17 Sudoeste 42 Sur 0.4 915.7 -1 88
2019-08-09 05:00:00 18.6 17 Sur 47 Sur 0.8 915.9 -1.2 87
2019-08-09 04:00:00 18.9 17 Sudoeste 46 Sudoeste 0 916.4 -0.8 85
2019-08-09 03:00:00 20.1 17 Sudoeste 42 Sur 0 916.7 -0.9 76
2019-08-09 02:00:00 20.2 16 Sudoeste 32 Sudoeste 0 917.1 -0.5 75
2019-08-09 01:00:00 20.4 9 Oeste 28 Sur 0 917.2 0.3 73
2019-08-09 00:00:00 20.9 13 Sudoeste 29 Sudoeste 0 917.6 0.8 69
2019-08-08 23:00:00 22 15 Oeste 36 Sudoeste 0 917.6 0.9 61
2019-08-08 22:00:00 22.4 14 Sudoeste 25 Sudoeste 0 916.9 0.2 59
2019-08-08 21:00:00 22.8 10 Oeste 39 Sudoeste 0 916.8 0.1 57
2019-08-08 20:00:00 24.8 19 Sudoeste 40 Oeste 0 916.7 -0.1 49
2019-08-08 19:00:00 25.1 18 Oeste 48 Sudoeste 0 916.7 -0.4 56
2019-08-08 18:00:00 25 19 Sudoeste 47 Sudoeste 0 916.7 -0.8 55
2019-08-08 17:00:00 25.2 23 Sudoeste 51 Sudoeste 0 916.8 -1.5 55
2019-08-08 16:00:00 25.6 27 Sudoeste 50 Sudoeste 0 917.1 -1.2 53
2019-08-08 15:00:00 24.1 15 Sudoeste 40 Sudoeste 0 917.5 -0.9 65
2019-08-08 14:00:00 20.9 13 Sudoeste 32 Sur 0 918.3 0 79
2019-08-08 13:00:00 20.3 11 Sudoeste 31 Sudoeste 0 918.3 0 83
2019-08-08 12:00:00 19.3 16 Sudoeste 29 Sudoeste 0 918.4 0.2 86
2019-08-08 11:00:00 18.7 10 Sudoeste 28 Sudoeste 0 918.3 0.4 89
2019-08-08 10:00:00 17.4 9 Sudoeste 18 Sudoeste 0.2 918.3 0.4 89
2019-08-08 09:00:00 16.9 9 Sur 21 Sur 0 918.2 0.3 89
2019-08-08 08:00:00 16.7 12 Sur 23 Sudoeste 0 917.9 -0.3 90
2019-08-08 07:00:00 16.7 11 Sur 25 Sudoeste 0.2 917.9 -0.5 89
2019-08-08 06:00:00 16.7 7 Sudoeste 14 Sudoeste 0 917.9 -0.9 87
2019-08-08 05:00:00 16.6 8 Sudoeste 18 Sudoeste 0 918.2 -0.7 88
2019-08-08 04:00:00 16.9 8 Sudoeste 28 Sudoeste 0 918.4 -0.4 85
2019-08-08 03:00:00 17.2 11 Sudoeste 28 Sur 0 918.8 0 83
2019-08-08 02:00:00 17.2 8 Sudoeste 18 Sudoeste 0 918.9 0.1 84
2019-08-08 01:00:00 17.2 7 Sudoeste 19 Oeste 0 918.8 0.1 84
2019-08-08 00:00:00 17.5 10 Oeste 20 Sudoeste 0 918.8 0.6 82
2019-08-07 23:00:00 17 9 Sudoeste 19 Sudoeste 0 918.8 0.3 83
2019-08-07 22:00:00 17.3 9 Oeste 15 Oeste 0 918.7 0 82
2019-08-07 21:00:00 17.9 7 Oeste 22 Oeste 0 918.2 -0.7 82
2019-08-07 20:00:00 18.4 10 Oeste 21 Oeste 0 918.5 -0.2 83
2019-08-07 19:00:00 17.8 10 Sudoeste 18 Sudoeste 1.4 918.7 -0.1 84
2019-08-07 18:00:00 17.6 11 Sudoeste 40 Sudoeste 1.2 918.9 0 85
2019-08-07 17:00:00 20.5 18 Sudoeste 37 Oeste 0 918.7 -0.3 60
2019-08-07 16:00:00 20.6 13 Oeste 41 Sudoeste 0 918.8 0 60
2019-08-07 15:00:00 21.6 14 Sudoeste 29 Sudoeste 0 918.9 0.3 51
2019-08-07 14:00:00 20.5 13 Sudoeste 30 Sudoeste 0 919 0.6 60
2019-08-07 13:00:00 22.2 10 Sudoeste 27 Sudoeste 0 918.8 0.8 49
2019-08-07 12:00:00 22.6 9 Sudoeste 20 Oeste 0 918.6 0.9 47
2019-08-07 11:00:00 20.6 0 Calma 6 Este 0 918.4 1.1 57
2019-08-07 10:00:00 18.6 0 Calma 5 Nordeste 0 918 1 63
2019-08-07 09:00:00 17 3 Norte 9 Sudeste 0 917.7 0.8 72
2019-08-07 08:00:00 14.6 3 Sur 5 Sur 0 917.3 0.4 76
2019-08-07 07:00:00 14.1 4 Sudeste 7 Sudeste 0 917 0.1 78
2019-08-07 06:00:00 14.9 0 Calma 6 Sudeste 0 916.9 -0.4 75
2019-08-07 05:00:00 15.8 2 Sudoeste 8 Sudoeste 0 916.9 -0.5 71
2019-08-07 04:00:00 16.6 4 Sur 10 Sudeste 0 916.9 -0.8 69
2019-08-07 03:00:00 17.9 0 Calma 6 Oeste 0 917.3 -0.2 65
2019-08-07 02:00:00 18.8 0 Calma 7 Sur 0 917.4 -0.2 61
2019-08-07 01:00:00 19.6 4 Oeste 13 Sur 0 917.7 0.7 54
2019-08-07 00:00:00 20 7 Sudoeste 13 Sudoeste 0 917.5 0.3 52
2019-08-06 23:00:00 20.9 3 Sudeste 17 Sudoeste 0 917.6 0.6 51
2019-08-06 22:00:00 21.1 5 Sudoeste 14 Sur 0 917 -0.2 50
2019-08-06 21:00:00 22.1 7 Oeste 30 Oeste 0 917.2 0 47
2019-08-06 20:00:00 23.3 15 Oeste 30 Oeste 0 917 -0.1 42
2019-08-06 19:00:00 24.5 19 Oeste 37 Oeste 0 917.2 -0.3 37
2019-08-06 18:00:00 26 15 Sudoeste 38 Oeste 0 917.2 -0.8 31
2019-08-06 17:00:00 27.3 18 Sudoeste 33 Sudoeste 0 917.1 -1.3 28
2019-08-06 16:00:00 28.5 14 Oeste 34 Sudoeste 0 917.5 -1.2 30
2019-08-06 15:00:00 27.6 11 Oeste 24 Sudoeste 0 918 -1 31
2019-08-06 14:00:00 26.9 11 Sudoeste 19 Sudoeste 0 918.4 -0.9 32
2019-08-06 13:00:00 25.7 6 Sudoeste 21 Sudoeste 0 918.7 -0.6 37
2019-08-06 12:00:00 25.4 5 Sur 16 Sur 0 919 -0.2 43
2019-08-06 11:00:00 21.8 2 Sudeste 10 Norte 0 919.3 0.1 57
2019-08-06 10:00:00 19.6 0 Calma 7 Sudeste 0 919.3 0.4 62
2019-08-06 09:00:00 13.6 0 Calma 8 Sudeste 0 919.2 0.2 84
2019-08-06 08:00:00 10.8 4 Sur 6 Noroeste 0 919.2 -0.2 85
2019-08-06 07:00:00 10.2 3 Sudeste 7 Sudeste 0 918.9 -0.5 85
2019-08-06 06:00:00 11.9 2 Norte 9 Sudeste 0 919 -0.1 83
2019-08-06 05:00:00 12.9 3 Noroeste 8 Sudeste 0 919.4 0.2 80
2019-08-06 04:00:00 13.7 2 Norte 9 Nordeste 0 919.4 0.3 78
2019-08-06 03:00:00 14.1 4 Sudeste 8 Sudeste 0 919.1 0.1 74
2019-08-06 02:00:00 15.9 3 Este 6 Sudoeste 0 919.2 0.2 70
2019-08-06 01:00:00 18.2 2 Sudeste 12 Oeste 0 919.1 0.8 61
2019-08-06 00:00:00 21.5 10 Oeste 18 Noroeste 0 919 1 51
2019-08-05 23:00:00 23.2 7 Oeste 22 Oeste 0 919 1.2 45
2019-08-05 22:00:00 25 11 Sudoeste 26 Sudoeste 0 918.3 0.4 37
2019-08-05 21:00:00 27.9 13 Sudoeste 30 Sudoeste 0 918 -0.1 29
2019-08-05 20:00:00 29.8 14 Sudoeste 32 Sudoeste 0 917.8 -0.6 25
2019-08-05 19:00:00 30.9 13 Oeste 26 Sudoeste 0 917.9 -0.9 22
2019-08-05 18:00:00 31.7 14 Oeste 35 Noroeste 0 918.1 -1 21
2019-08-05 17:00:00 31.6 11 Sudoeste 32 Sudoeste 0 918.4 -1.1 21
2019-08-05 16:00:00 31.4 11 Oeste 27 Oeste 0 918.8 -1.2 19
2019-08-05 15:00:00 30.2 9 Sudoeste 25 Oeste 0 919.1 -1.5 21
2019-08-05 14:00:00 29.5 9 Oeste 21 Sur 0 919.5 -1.5 28
2019-08-05 13:00:00 28.2 6 Norte 18 Norte 0 920 -1.2 34
2019-08-05 12:00:00 25.1 4 Sudeste 14 Este 0 920.6 -0.8 44
2019-08-05 11:00:00 22.2 4 Norte 10 Norte 0 921 -0.3 55
2019-08-05 10:00:00 19.2 2 Este 8 Sudeste 0 921.2 0.1 62
2019-08-05 09:00:00 14.2 4 Sudeste 7 Sudeste 0 921.4 0.4 74
2019-08-05 08:00:00 9.8 3 Sudeste 5 Sudeste 0 921.3 0.3 84
2019-08-05 07:00:00 10 3 Sudoeste 5 Sudoeste 0 921.1 0.2 84
2019-08-05 06:00:00 10.5 3 Sudeste 5 Sur 0 921 0.2 82
2019-08-05 05:00:00 12.5 2 Este 4 Nordeste 0 921 0.5 77
2019-08-05 04:00:00 14 0 Calma 8 Sudeste 0 920.9 0.4 72
2019-08-05 03:00:00 14.6 3 Sudeste 8 Sudeste 0 920.8 0.5 68
2019-08-05 02:00:00 17.4 3 Sudoeste 10 Sur 0 920.5 0.1 58
2019-08-05 01:00:00 17.4 4 Sur 10 Sur 0 920.5 0.8 61
2019-08-05 00:00:00 18.8 3 Sudeste 17 Sudoeste 0 920.3 1 58
2019-08-04 23:00:00 22.1 9 Oeste 20 Oeste 0 920.4 1.3 47
2019-08-04 22:00:00 24.1 10 Oeste 28 Oeste 0 919.7 0.9 41
2019-08-04 21:00:00 27.2 14 Oeste 28 Oeste 0 919.3 0.6 32
2019-08-04 20:00:00 29 16 Oeste 35 Sudoeste 0 919.1 0.1 25
2019-08-04 19:00:00 30.1 16 Sudoeste 32 Sudoeste 0 918.8 -0.3 19
2019-08-04 18:00:00 30.5 15 Oeste 34 Sudoeste 0 918.7 -0.5 19
2019-08-04 17:00:00 30.9 15 Oeste 39 Noroeste 0 919 -0.5 18
2019-08-04 16:00:00 30.8 16 Sudoeste 35 Sur 0 919.1 -0.8 23
2019-08-04 15:00:00 29.9 15 Oeste 36 Sudoeste 0 919.2 -0.8 23
2019-08-04 14:00:00 29 12 Sudoeste 29 Sur 0 919.5 -0.5 23
2019-08-04 13:00:00 28.4 10 Sudoeste 24 Sur 0 919.9 -0.4 26
2019-08-04 12:00:00 26.8 10 Oeste 23 Sudoeste 0 920 -0.2 33
2019-08-04 11:00:00 24.9 8 Sudeste 16 Sudeste 0 920 0.2 44
2019-08-04 10:00:00 21.1 0 Calma 5 Sudoeste 0 920.3 0.4 54
2019-08-04 09:00:00 16.1 2 Nordeste 6 Sudeste 0 920.2 0.6 71
2019-08-04 08:00:00 11.9 0 Calma 9 Sudeste 0 919.8 0 84
2019-08-04 07:00:00 11.1 3 Sur 7 Sudeste 0 919.9 0.1 83
2019-08-04 06:00:00 12.1 2 Sudeste 7 Sudeste 0 919.6 -0.1 78
2019-08-04 05:00:00 14.4 3 Norte 6 Sudeste 0 919.8 0.3 75
2019-08-04 04:00:00 14.7 2 Sur 5 Sur 0 919.8 0.4 73
2019-08-04 03:00:00 15 0 Calma 9 Sudeste 0 919.7 0.5 69
2019-08-04 02:00:00 17.4 3 Sur 9 Sudeste 0 919.5 0.4 61
2019-08-04 01:00:00 18.9 5 Sudeste 10 Sudeste 0 919.4 0.9 56
2019-08-04 00:00:00 19.6 4 Este 22 Oeste 0 919.2 1.1 53
2019-08-03 23:00:00 23.4 8 Oeste 23 Oeste 0 919.1 1.3 43
2019-08-03 22:00:00 24.9 12 Oeste 22 Oeste 0 918.5 0.6 34
2019-08-03 21:00:00 28.3 12 Noroeste 24 Oeste 0 918.1 0.1 30
2019-08-03 20:00:00 30.8 13 Oeste 30 Sudoeste 0 917.8 -0.5 15
2019-08-03 19:00:00 31.9 13 Oeste 31 Oeste 0 917.9 -0.8 16
2019-08-03 18:00:00 32.7 10 Oeste 37 Sudoeste 0 918 -0.8 18
2019-08-03 17:00:00 32.4 14 Oeste 35 Oeste 0 918.3 -0.9 20
2019-08-03 16:00:00 32.2 18 Sudoeste 43 Oeste 0 918.7 -0.9 19
2019-08-03 15:00:00 31.7 14 Oeste 36 Oeste 0 918.8 -1 19
2019-08-03 14:00:00 31.8 7 Sudoeste 29 Sudoeste 0 919.2 -0.8 20
2019-08-03 13:00:00 30.3 3 Nordeste 12 Noroeste 0 919.6 -0.7 26
2019-08-03 12:00:00 27.6 3 Sudeste 14 Este 0 919.8 -0.4 30
2019-08-03 11:00:00 24.7 5 Nordeste 13 Nordeste 0 920 0 37
2019-08-03 10:00:00 21.7 0 Calma 6 Este 0 920.3 0.3 50
2019-08-03 09:00:00 15.9 3 Sudeste 4 Sudeste 0 920.2 0.1 69
2019-08-03 08:00:00 11.5 2 Noroeste 5 Sur 0 920 -0.1 85
2019-08-03 07:00:00 11.8 0 Calma 5 Sudeste 0 920 -0.3 83
2019-08-03 06:00:00 11.9 2 Sudeste 5 Sudeste 0 920.1 -0.6 81
2019-08-03 05:00:00 12.8 0 Calma 5 Sudoeste 0 920.1 -0.7 79
2019-08-03 04:00:00 13.6 3 Sudoeste 5 Sudoeste 0 920.3 -0.1 74
2019-08-03 03:00:00 15.7 2 Norte 6 Noroeste 0 920.7 0.4 67
2019-08-03 02:00:00 16.1 2 Oeste 10 Sudeste 0 920.8 0.7 66
2019-08-03 01:00:00 18.2 4 Sur 10 Sur 0 920.4 1 57
2019-08-03 00:00:00 19.5 6 Sudeste 9 Sur 0 920.3 1 51
2019-08-02 23:00:00 21.9 5 Sudeste 21 Oeste 0 920.1 1 41
2019-08-02 22:00:00 25.8 8 Sudoeste 16 Sudoeste 0 919.4 0.2 28
2019-08-02 21:00:00 30.2 6 Sudoeste 15 Oeste 0 919.3 -0.2 21
2019-08-02 20:00:00 31.4 8 Oeste 21 Oeste 0 919.1 -0.8 17
2019-08-02 19:00:00 31.9 5 Sudeste 19 Sur 0 919.2 -1.2 16
2019-08-02 18:00:00 31.9 9 Sudeste 25 Sudeste 0 919.5 -1.3 17
2019-08-02 17:00:00 32.7 8 Oeste 19 Noroeste 0 919.9 -1.3 17
2019-08-02 16:00:00 31.5 6 Nordeste 20 Sudeste 0 920.4 -1.1 19
2019-08-02 15:00:00 30.5 7 Este 22 Sudeste 0 920.8 -1 23
2019-08-02 14:00:00 29.4 5 Nordeste 16 Nordeste 0 921.2 -0.8 25
2019-08-02 13:00:00 27.7 4 Este 17 Norte 0 921.5 -0.4 28
2019-08-02 12:00:00 24.8 6 Nordeste 18 Este 0 921.8 0.1 37
2019-08-02 11:00:00 21.8 4 Nordeste 13 Nordeste 0 922 0.6 50
2019-08-02 10:00:00 19.1 6 Nordeste 12 Nordeste 0 921.9 0.6 62
2019-08-02 09:00:00 15.3 2 Norte 5 Norte 0 921.7 0.6 77
2019-08-02 08:00:00 10.2 3 Sur 5 Sur 0 921.4 0.1 89
2019-08-02 07:00:00 10.4 0 Calma 4 Noroeste 0 921.3 -0.1 86
2019-08-02 06:00:00 11.7 0 Calma 6 Sudeste 0 921.1 -0.2 84
2019-08-02 05:00:00 13.4 2 Oeste 5 Noroeste 0 921.3 0.1 83
2019-08-02 04:00:00 14.2 0 Calma 8 Este 0 921.4 0.5 77
2019-08-02 03:00:00 15.5 2 Sur 10 Nordeste 0 921.3 1.1 75
2019-08-02 02:00:00 16.9 4 Nordeste 9 Este 0 921.2 1.4 69
2019-08-02 01:00:00 17.4 2 Nordeste 23 Este 0 920.9 2.1 58
2019-08-02 00:00:00 18.4 4 Sur 12 Sur 0 920.2 1.9 51
2019-08-01 23:00:00 20.6 4 Sur 19 Oeste 0 919.8 1.9 41
2019-08-01 22:00:00 23.7 9 Oeste 18 Oeste 0 918.8 1.2 34
2019-08-01 21:00:00 27.9 6 Oeste 22 Sudoeste 0 918.3 0.7 21
2019-08-01 20:00:00 29.1 9 Oeste 26 Oeste 0 917.9 0.3 19
2019-08-01 19:00:00 29.4 11 Oeste 30 Oeste 0 917.6 -0.2 16
2019-08-01 18:00:00 30.3 10 Oeste 29 Sudoeste 0 917.6 -0.4 15
2019-08-01 17:00:00 29.6 12 Sudoeste 32 Sudoeste 0 917.6 -0.7 20
2019-08-01 16:00:00 30 9 Sudoeste 29 Sudoeste 0 917.8 -0.5 19
2019-08-01 15:00:00 29.1 11 Sur 23 Sudoeste 0 918 -0.7 20
2019-08-01 14:00:00 28.1 8 Sudoeste 26 Sudoeste 0 918.3 -0.4 24
2019-08-01 13:00:00 27.2 6 Oeste 17 Sudoeste 0 918.3 -0.2 25
2019-08-01 12:00:00 24.8 5 Sur 12 Este 0 918.7 0.2 33
2019-08-01 11:00:00 22.2 3 Norte 10 Este 0 918.7 0.6 42
2019-08-01 10:00:00 19 3 Este 7 Este 0 918.5 0.5 55
2019-08-01 09:00:00 14 0 Calma 4 Este 0 918.5 0.6 69
2019-08-01 08:00:00 8.2 2 Sudeste 6 Sudeste 0 918.1 -0.1 86
2019-08-01 07:00:00 8.1 0 Calma 5 Sudeste 0 918 -0.6 82
2019-08-01 06:00:00 9 0 Calma 6 Norte 0 917.9 -1.1 79
2019-08-01 05:00:00 10.3 0 Calma 8 Sudoeste 0 918.2 -0.9 75
2019-08-01 04:00:00 11 5 Sudoeste 8 Sur 0 918.6 -0.5 73
2019-08-01 03:00:00 11.8 2 Oeste 5 Sudoeste 0 919 0.2 68
2019-08-01 02:00:00 12.6 0 Calma 4 Sudoeste 0 919.1 0.2 64
2019-08-01 01:00:00 13.7 2 Sur 9 Sudeste 0 919.1 0.7 58
2019-08-01 00:00:00 15.8 5 Sudoeste 7 Sudoeste 0 918.8 0.5 48
2019-07-31 23:00:00 18.2 3 Norte 6 Sudoeste 0 918.9 0.5 42
2019-07-31 22:00:00 20.7 3 Sudoeste 6 Sudeste 0 918.4 -0.2 35
2019-07-31 21:00:00 24.1 3 Este 11 Nordeste 0 918.3 -0.7 27
2019-07-31 20:00:00 25.7 5 Este 14 Sudeste 0 918.4 -0.9 23
2019-07-31 19:00:00 26.4 5 Este 14 Este 0 918.6 -1.4 23
2019-07-31 18:00:00 25.3 7 Sudeste 17 Sudeste 0 919 -1.3 24
2019-07-31 17:00:00 25.3 8 Nordeste 20 Este 0 919.3 -1.3 23
2019-07-31 16:00:00 24.7 8 Este 26 Este 0 920 -1.1 25
2019-07-31 15:00:00 24.4 10 Este 25 Sudeste 0 920.3 -1.5 28
2019-07-31 14:00:00 24.2 12 Este 31 Nordeste 0 920.6 -1.6 29
2019-07-31 13:00:00 22.6 9 Este 24 Este 0 921.1 -1.4 34
2019-07-31 12:00:00 21 8 Nordeste 26 Nordeste 0 921.8 -0.9 41
2019-07-31 11:00:00 17.4 11 Este 19 Este 0 922.2 -0.6 51
2019-07-31 10:00:00 15.8 9 Nordeste 24 Nordeste 0 922.5 -0.4 59
2019-07-31 09:00:00 12.6 3 Norte 8 Nordeste 0 922.7 0 73
2019-07-31 08:00:00 8.4 0 Calma 5 Noroeste 0 922.8 -0.2 86
2019-07-31 07:00:00 8.3 3 Noroeste 5 Norte 0 922.9 0 83
2019-07-31 06:00:00 9.5 3 Norte 8 Nordeste 0 922.7 -0.4 79
2019-07-31 05:00:00 10.6 3 Noroeste 8 Nordeste 0 923 0 76
2019-07-31 04:00:00 11 4 Nordeste 11 Este 0 922.9 -0.2 73
2019-07-31 03:00:00 11.2 3 Norte 8 Este 0 923.1 0.7 67
2019-07-31 02:00:00 12 3 Nordeste 8 Nordeste 0 923 0.8 59
2019-07-31 01:00:00 12.6 4 Este 13 Este 0 923.1 1.7 56
2019-07-31 00:00:00 15.1 3 Sudoeste 6 Sur 0 922.4 1.4 45
2019-07-30 23:00:00 16.7 2 Este 14 Norte 0 922.2 1.4 38
2019-07-30 22:00:00 19.3 2 Sur 18 Este 0 921.4 0.5 31
2019-07-30 21:00:00 23.4 10 Este 19 Este 0 921 -0.3 22
2019-07-30 20:00:00 25.9 6 Nordeste 17 Norte 0 920.8 -0.9 17
2019-07-30 19:00:00 27.2 4 Noroeste 18 Norte 0 920.9 -1.3 17
2019-07-30 18:00:00 26.5 7 Oeste 18 Oeste 0 921.3 -1.4 17
2019-07-30 17:00:00 26.7 8 Norte 20 Norte 0 921.7 -1.4 16
2019-07-30 16:00:00 25 7 Norte 17 Oeste 0 922.2 -1.3 18
2019-07-30 15:00:00 23.6 8 Sudeste 18 Sudeste 0 922.7 -1 24
2019-07-30 14:00:00 22.8 6 Este 18 Este 0 923.1 -0.5 25
2019-07-30 13:00:00 21.7 6 Nordeste 20 Nordeste 0 923.5 -0.2 27
2019-07-30 12:00:00 19.8 3 Sudoeste 17 Nordeste 0 923.7 0.4 31
2019-07-30 11:00:00 17.6 6 Norte 16 Norte 0 923.6 0.6 38
2019-07-30 10:00:00 14.5 3 Nordeste 8 Este 0 923.7 1.2 52
2019-07-30 09:00:00 10.2 3 Este 10 Sudeste 0 923.3 1.2 68
2019-07-30 08:00:00 4.6 3 Noroeste 8 Sudeste 0 923 1.2 85
2019-07-30 07:00:00 5.5 0 Calma 10 Sudoeste 0 922.5 0.3 79
2019-07-30 06:00:00 6.2 3 Sur 12 Sudoeste 0 922.1 0 77
2019-07-30 05:00:00 7.7 6 Sur 12 Sudoeste 0 921.8 0.2 73
2019-07-30 04:00:00 8.4 5 Sudeste 15 Sur 0 922.2 0.7 71
2019-07-30 03:00:00 9.1 7 Sur 13 Sudeste 0 922.1 0.8 70
2019-07-30 02:00:00 10.2 4 Sur 11 Sudeste 0 921.6 1 67
2019-07-30 01:00:00 12.7 3 Norte 26 Oeste 0 921.5 1.4 59
2019-07-30 00:00:00 12.4 5 Sur 14 Sudoeste 0 921.3 1.9 58
2019-07-29 23:00:00 14.6 12 Oeste 30 Oeste 0 920.6 1.7 50
2019-07-29 22:00:00 16 9 Oeste 27 Oeste 0 920.1 1.7 45
2019-07-29 21:00:00 18.6 17 Oeste 40 Oeste 0 919.4 1.2 36
2019-07-29 20:00:00 20.9 20 Noroeste 40 Noroeste 0 918.9 0.9 32
2019-07-29 19:00:00 22.5 18 Noroeste 45 Noroeste 0 918.4 0.5 30
2019-07-29 18:00:00 23.6 17 Noroeste 42 Noroeste 0 918.2 0.5 29
2019-07-29 17:00:00 23.9 17 Noroeste 40 Oeste 0 918 0.6 27
2019-07-29 16:00:00 23.8 19 Noroeste 40 Oeste 0 917.9 0.5 29
2019-07-29 15:00:00 23.3 19 Oeste 41 Sudoeste 0 917.7 0.4 29
2019-07-29 14:00:00 22.2 21 Sudoeste 49 Sudoeste 0 917.4 0.3 34
2019-07-29 13:00:00 20.9 24 Sudoeste 43 Sudoeste 0 917.4 0.4 40
2019-07-29 12:00:00 20.1 18 Sudoeste 41 Sudoeste 0 917.3 0.6 45
2019-07-29 11:00:00 18.8 16 Sudoeste 33 Sudoeste 0 917.1 1 52
2019-07-29 10:00:00 16.7 18 Sudoeste 36 Sudoeste 0 917 1.2 63
2019-07-29 09:00:00 15.1 24 Sudoeste 35 Sudoeste 0 916.7 1.3 62
2019-07-29 08:00:00 13.9 15 Sudoeste 29 Sudoeste 0 916.1 0.6 62
2019-07-29 07:00:00 13.5 17 Sudoeste 28 Sudoeste 0 915.8 0.4 65
2019-07-29 06:00:00 14 17 Sudoeste 27 Sudoeste 0 915.4 -0.1 57
2019-07-29 05:00:00 14.4 15 Sudoeste 29 Sudoeste 0 915.5 -0.1 50
2019-07-29 04:00:00 14.7 16 Sudoeste 38 Sudoeste 0 915.4 -0.3 47
2019-07-29 03:00:00 15.5 18 Sudoeste 34 Sudoeste 0 915.5 -0.4 48
2019-07-29 02:00:00 16.2 15 Sudoeste 26 Sudoeste 0 915.6 -0.2 48
2019-07-29 01:00:00 17.3 8 Sudoeste 19 Sudoeste 0 915.7 0.3 53
2019-07-29 00:00:00 19.5 11 Sudoeste 25 Oeste 0 915.9 0.8 43
2019-07-28 23:00:00 20.4 10 Oeste 18 Sudoeste 0 915.8 0.8 35
2019-07-28 22:00:00 21.6 8 Sudoeste 21 Oeste 0 915.4 0.4 30
2019-07-28 21:00:00 25.2 10 Oeste 27 Oeste 0 915.1 0 21
2019-07-28 20:00:00 26.6 11 Sudoeste 26 Oeste 0 915 -0.6 21
2019-07-28 19:00:00 27.4 13 Oeste 33 Oeste 0 915 -1.1 18
2019-07-28 18:00:00 27.6 8 Sudoeste 29 Oeste 0 915.1 -1.4 20
2019-07-28 17:00:00 26.7 12 Sudoeste 31 Oeste 0 915.6 -1.5 19
2019-07-28 16:00:00 26.2 11 Sudoeste 30 Sudoeste 0 916.1 -1.6 24
2019-07-28 15:00:00 24.9 6 Sur 25 Sudoeste 0 916.5 -1.6 27
2019-07-28 14:00:00 23.6 5 Sudeste 22 Sur 0 917.1 -1.4 32
2019-07-28 13:00:00 22.1 3 Este 18 Sudeste 0 917.7 -0.9 39
2019-07-28 12:00:00 20.5 5 Nordeste 18 Sudeste 0 918.1 -0.3 48
2019-07-28 11:00:00 18 4 Noroeste 15 Norte 0 918.5 0.1 54
2019-07-28 10:00:00 15.9 3 Este 8 Este 0 918.6 0.1 61
2019-07-28 09:00:00 13.3 2 Nordeste 6 Este 0 918.4 0.2 73
2019-07-28 08:00:00 8.2 4 Sudeste 9 Sur 0 918.4 0.1 91
2019-07-28 07:00:00 6.6 5 Sur 8 Sur 0 918.5 -0.2 88
2019-07-28 06:00:00 7.2 3 Sur 9 Sudeste 0 918.2 -0.3 87
2019-07-28 05:00:00 8.5 2 Sur 5 Sur 0 918.3 0 83
2019-07-28 04:00:00 10.4 0 Calma 4 Sur 0 918.7 0.4 80
2019-07-28 03:00:00 11.6 0 Calma 9 Este 0 918.5 0.5 75
2019-07-28 02:00:00 12.8 5 Este 13 Este 0 918.3 1 69
2019-07-28 01:00:00 14 8 Este 18 Este 0 918.3 1.9 65
2019-07-28 00:00:00 15.1 6 Este 19 Sudeste 0 918 2.4 60
2019-07-27 23:00:00 16.8 9 Este 17 Este 0 917.3 2.3 55
2019-07-26 12:00:00 22.2 4 Sudeste 17 Norte 0 918.8 0.1 41
2019-07-26 11:00:00 20.2 3 Este 12 Norte 0 918.9 0.4 50
2019-07-26 10:00:00 17.6 4 Noroeste 10 Noroeste 0 919 0.5 54
2019-07-26 09:00:00 12.8 2 Sudeste 9 Sudeste 0 918.7 0.2 79
2019-07-26 08:00:00 10.2 3 Sudeste 8 Sudeste 0 918.5 -0.1 89
2019-07-26 07:00:00 10.7 4 Este 9 Sudeste 0 918.5 -0.4 84
2019-07-26 06:00:00 12.1 6 Sur 11 Sudoeste 0 918.5 -0.1 85
2019-07-26 05:00:00 13.1 6 Sur 11 Sudoeste 0 918.6 0 82
2019-07-26 04:00:00 14.4 5 Sur 13 Sudoeste 0 918.9 0.1 77
2019-07-26 03:00:00 16.4 5 Oeste 25 Sudoeste 0 918.6 -0.3 70
2019-07-26 02:00:00 16.9 13 Sudoeste 28 Sudoeste 0 918.6 -0.2 70
2019-07-26 01:00:00 17.7 16 Sudoeste 27 Sudoeste 0 918.8 0.2 71
2019-07-26 00:00:00 18.4 12 Sudoeste 22 Sudoeste 0 918.9 1 71
2019-07-25 23:00:00 19.4 11 Sudoeste 19 Oeste 0 918.8 0.8 68
2019-07-25 22:00:00 21 10 Oeste 26 Oeste 0 918.6 0.8 60
2019-07-25 21:00:00 22.2 5 Sudeste 28 Oeste 0 917.9 0.2 53
2019-07-25 20:00:00 23.4 14 Oeste 30 Oeste 0 918 0.2 46
2019-07-25 19:00:00 24.6 18 Oeste 36 Sudoeste 0 917.8 -0.4 44
2019-07-25 18:00:00 27.1 14 Sudoeste 38 Oeste 0 917.7 -0.6 32
2019-07-25 17:00:00 27.7 15 Oeste 50 Sur 0 917.8 -0.6 33
2019-07-25 16:00:00 28.5 20 Sudoeste 48 Sudoeste 0 918.2 -0.2 30
2019-07-25 15:00:00 28.6 16 Sudoeste 41 Sudoeste 0 918.3 -0.2 31
2019-07-25 14:00:00 27.8 19 Sudoeste 44 Sudoeste 0 918.4 -0.1 32
2019-07-25 13:00:00 27.2 19 Sur 38 Sur 0 918.4 0 30
2019-07-25 12:00:00 25.8 15 Sudoeste 27 Sudoeste 0 918.5 -0.2 35
2019-07-25 11:00:00 23.6 11 Sudoeste 22 Sudoeste 0 918.5 0.1 42
2019-07-25 10:00:00 22.4 12 Sudoeste 23 Sudoeste 0 918.4 0.3 44
2019-07-25 09:00:00 20.6 9 Sudoeste 18 Sudoeste 0 918.7 0.9 46
2019-07-25 08:00:00 17.7 5 Oeste 23 Sudoeste 0 918.4 0.4 58
2019-07-25 07:00:00 17.8 12 Sudoeste 22 Sudoeste 0 918.1 0 51
2019-07-25 06:00:00 18.4 14 Sudoeste 22 Sudoeste 0 917.8 -0.4 47
2019-07-25 05:00:00 19.2 12 Sudoeste 20 Sudoeste 0 918 -0.3 46
2019-07-25 04:00:00 20.4 13 Sudoeste 21 Sudoeste 0 918.1 -0.4 40
2019-07-25 03:00:00 20.4 13 Sudoeste 20 Sudoeste 0 918.2 -0.4 37
2019-07-25 02:00:00 20.6 9 Sudoeste 17 Sudoeste 0 918.3 -0.3 35
2019-07-25 01:00:00 22 11 Sudoeste 19 Sudoeste 0 918.5 0.4 34
2019-07-25 00:00:00 23 9 Sudoeste 21 Oeste 0 918.6 1.1 34
2019-07-24 23:00:00 24.8 12 Oeste 26 Oeste 0 918.6 1.3 33
2019-07-24 22:00:00 26.2 11 Oeste 29 Oeste 0 918.1 0.7 35
2019-07-24 21:00:00 30 15 Oeste 33 Sudoeste 0 917.5 -0.5 27
2019-07-24 20:00:00 32.1 14 Sudoeste 41 Sur 0 917.3 -1.1 18
2019-07-24 19:00:00 32.2 18 Sudoeste 38 Sudoeste 0 917.4 -1.4 18
2019-07-24 18:00:00 33.1 15 Sur 36 Sur 0 918 -1.3 20
2019-07-24 17:00:00 32.7 18 Sudoeste 38 Sur 0 918.4 -1 19
2019-07-24 16:00:00 32.2 13 Sudoeste 39 Sur 0 918.8 -1.1 23
2019-07-24 15:00:00 31.2 17 Sur 39 Sudoeste 0 919.3 -1.1 24
2019-07-24 14:00:00 31.2 12 Sur 39 Sur 0 919.4 -1.2 25
2019-07-24 13:00:00 30.3 10 Sur 27 Sur 0 919.9 -0.7 31
2019-07-24 12:00:00 28.5 4 Este 15 Este 0 920.4 -0.2 41
2019-07-24 11:00:00 25.7 5 Nordeste 12 Este 0 920.6 -0.1 47
2019-07-24 10:00:00 22.5 7 Sudeste 13 Sudeste 0 920.6 -0.1 57
2019-07-24 09:00:00 18.5 2 Este 8 Sudeste 0 920.6 0 73
2019-07-24 08:00:00 14.8 0 Calma 8 Sudoeste 0 920.7 0.1 85
2019-07-24 07:00:00 14.4 5 Sur 10 Sudoeste 0 920.7 -0.2 85
2019-07-24 06:00:00 15.5 6 Sudoeste 11 Sur 0 920.6 -0.6 83
2019-07-24 05:00:00 15.3 5 Sudeste 10 Sudeste 0 920.6 -0.9 82
2019-07-24 04:00:00 16.2 3 Sudeste 9 Sudeste 0 920.9 -1 79
2019-07-24 03:00:00 17.9 3 Sudoeste 12 Noroeste 0 921.2 0 75
2019-07-24 02:00:00 18.9 3 Noroeste 17 Nordeste 0 921.5 0.7 69
2019-07-24 01:00:00 18.5 4 Este 15 Este 0 921.9 1.5 69
2019-07-24 00:00:00 19.5 3 Sur 10 Sudoeste 0 921.2 0.9 68
2019-07-23 23:00:00 21 4 Sur 8 Sudoeste 0 920.8 0.6 66
2019-07-23 22:00:00 23.3 4 Nordeste 11 Noroeste 0 920.4 0.9 58
2019-07-23 21:00:00 25.3 3 Noroeste 10 Oeste 0 920.3 1.3 49
2019-07-23 20:00:00 24.7 5 Sur 42 Norte 0 920.2 0.5 48
2019-07-23 19:00:00 28.8 10 Sudoeste 32 Sudoeste 0 919.5 -0.7 39
2019-07-23 18:00:00 33.6 13 Oeste 32 Sudoeste 0 919 -1.4 25
2019-07-23 17:00:00 33.6 11 Sur 28 Sudoeste 0 919.7 -1.4 26
2019-07-23 16:00:00 33.3 6 Este 22 Sudoeste 0 920.2 -1.4 24
2019-07-23 15:00:00 32.2 14 Sur 28 Sudoeste 0 920.4 -1.3 25
2019-07-23 14:00:00 31.1 8 Sudeste 28 Sudeste 0 921.1 -0.5 29
2019-07-23 13:00:00 29.9 7 Este 19 Este 0 921.6 -0.1 37
2019-07-23 12:00:00 26.5 3 Oeste 11 Noroeste 0 921.7 -0.4 46
2019-07-23 11:00:00 23.6 5 Noroeste 14 Noroeste 0 921.6 -1.1 58
2019-07-23 10:00:00 19.4 6 Noroeste 10 Oeste 0 921.7 -1.1 73
2019-07-23 09:00:00 18.3 4 Este 10 Nordeste 0 922.1 -0.7 77
2019-07-23 08:00:00 16.3 3 Sur 8 Sudeste 0 922.7 0.3 82
2019-07-23 07:00:00 16.1 2 Norte 9 Sudeste 0 922.8 0.9 80
2019-07-23 06:00:00 16.3 4 Sur 10 Sudoeste 0 922.8 0.1 78
2019-07-23 05:00:00 17.7 7 Sur 16 Sur 0 922.4 -0.7 72
2019-07-23 04:00:00 16.7 7 Sur 11 Sur 0 921.9 -1.2 78
2019-07-23 03:00:00 18 2 Sur 9 Noroeste 0 922.7 0.3 73
2019-07-23 02:00:00 19.3 6 Noroeste 17 Sudoeste 0 923.1 -1 67
2019-07-23 01:00:00 19.8 4 Norte 16 Sudeste 0 923.1 -0.5 65
2019-07-23 00:00:00 18.7 5 Sur 15 Sudeste 0.6 922.4 -0.2 77
2019-07-22 23:00:00 20.4 6 Norte 23 Norte 0 924.1 2 66
2019-07-22 22:00:00 23.2 14 Oeste 59 Sudeste 0.4 923.6 2.5 50
2019-07-22 21:00:00 24.4 8 Este 42 Sudeste 0 922.6 1 39
2019-07-22 20:00:00 26.2 23 Sur 57 Sudeste 0 922.1 -0.1 36
2019-07-22 19:00:00 35.6 10 Sudoeste 23 Oeste 0 921.1 -1.6 16
2019-07-22 18:00:00 35.5 5 Sudeste 23 Sur 0 921.6 -1.7 19
2019-07-22 17:00:00 35.1 8 Sudeste 27 Sudeste 0 922.2 -1.7 21
2019-07-22 16:00:00 34.7 8 Sudeste 21 Sudeste 0 922.7 -1.6 24
2019-07-22 15:00:00 33.6 6 Este 18 Sudeste 0 923.3 -1.3 29
2019-07-22 14:00:00 31.4 6 Este 18 Este 0 923.9 -1 31
2019-07-22 13:00:00 29.9 6 Este 18 Este 0 924.3 -0.7 37
2019-07-22 12:00:00 27.9 6 Nordeste 18 Este 0 924.6 -0.3 43
2019-07-22 11:00:00 25.2 5 Nordeste 19 Este 0 924.9 0.2 51
2019-07-22 10:00:00 22.2 6 Nordeste 12 Este 0 925 0.4 61
2019-07-22 09:00:00 17.8 2 Sudeste 5 Sudeste 0 924.9 0.3 79
2019-07-22 08:00:00 13.3 0 Calma 4 Oeste 0 924.7 0 87
2019-07-22 07:00:00 12.6 2 Sur 6 Sudeste 0 924.6 -0.2 86
2019-07-22 06:00:00 13.1 2 Norte 5 Norte 0 924.6 -0.6 84
2019-07-22 05:00:00 14.1 0 Calma 5 Sudeste 0 924.7 -0.5 81
2019-07-22 04:00:00 14.8 3 Sudoeste 5 Sudoeste 0 924.8 -0.3 79
2019-07-22 03:00:00 15 4 Sur 5 Sudoeste 0 925.2 0.8 77
2019-07-22 02:00:00 17 0 Calma 9 Noroeste 0 925.2 1.2 72
2019-07-22 01:00:00 18.3 5 Este 11 Este 0 925.1 1.9 61
2019-07-22 00:00:00 19.8 5 Sur 19 Nordeste 0 924.4 1.4 55
2019-07-21 23:00:00 22.4 6 Sur 11 Sur 0 924 1.4 45
2019-07-21 22:00:00 24.8 4 Sur 12 Oeste 0 923.2 0.7 41
2019-07-21 21:00:00 31.6 5 Noroeste 15 Noroeste 0 923 0.5 25
2019-07-21 20:00:00 33.5 6 Noroeste 18 Sudeste 0 922.6 -0.3 21
2019-07-21 19:00:00 33.9 5 Oeste 23 Oeste 0 922.5 -0.7 17
2019-07-21 18:00:00 34 9 Noroeste 26 Sudoeste 0 922.5 -0.9 17
2019-07-21 17:00:00 33.2 9 Sur 26 Sur 0 922.9 -1.1 21
2019-07-21 16:00:00 32.3 4 Sudeste 26 Sur 0 923.2 -1.3 23
2019-07-21 15:00:00 31.2 6 Norte 14 Norte 0 923.4 -1.4 30
2019-07-21 14:00:00 29.3 4 Noroeste 14 Este 0 924 -0.5 33
2019-07-21 13:00:00 27.7 5 Nordeste 17 Noroeste 0 924.5 -0.2 41
2019-07-21 12:00:00 25.1 5 Nordeste 15 Nordeste 0 924.8 0.3 48
2019-07-21 11:00:00 22.5 6 Nordeste 18 Norte 0 924.5 0.3 56
2019-07-21 10:00:00 19 6 Este 15 Este 0 924.7 0.7 69
2019-07-21 09:00:00 16.5 3 Sudeste 6 Sudeste 0 924.5 0.6 79
2019-07-21 08:00:00 14 0 Calma 6 Sur 0 924.2 0.5 85
2019-07-21 07:00:00 12.5 3 Sudeste 8 Noroeste 0 924 0.2 85
2019-07-21 06:00:00 12.5 4 Sudeste 5 Sudeste 0 923.9 0 85
2019-07-21 05:00:00 14 2 Noroeste 7 Nordeste 0 923.7 0.1 78
2019-07-21 04:00:00 14.9 3 Norte 6 Nordeste 0 923.8 0.8 74
2019-07-21 03:00:00 16.1 3 Nordeste 7 Nordeste 0 923.9 1.4 68
2019-07-21 02:00:00 15 2 Sur 11 Sudeste 0 923.6 1.8 70
2019-07-21 01:00:00 16.1 4 Sudeste 10 Oeste 0 923 2 65
2019-07-21 00:00:00 19.2 5 Sudoeste 12 Sudoeste 0 922.5 1.7 55
2019-07-20 23:00:00 20.4 4 Sudoeste 20 Oeste 0 921.8 1.2 51
2019-07-20 22:00:00 25 12 Oeste 21 Oeste 0 921 0.7 31
2019-07-20 21:00:00 27.9 9 Sudoeste 40 Sudoeste 0 920.8 0.7 27
2019-07-20 20:00:00 29.7 12 Sudoeste 33 Oeste 0 920.6 0.5 20
2019-07-20 19:00:00 30.2 14 Sudoeste 32 Noroeste 0 920.3 0.1 17
2019-07-20 18:00:00 30.6 18 Oeste 39 Sudoeste 0 920.1 -0.1 20
2019-07-20 17:00:00 31.1 17 Oeste 39 Sudoeste 0 920.1 -0.2 20
2019-07-20 16:00:00 31 14 Oeste 33 Sudoeste 0 920.2 -0.2 19
2019-07-20 15:00:00 30.5 10 Sudoeste 27 Sudoeste 0 920.2 -0.2 22
2019-07-20 14:00:00 30.4 11 Oeste 29 Sur 0 920.3 -0.1 26
2019-07-20 13:00:00 28.6 7 Oeste 19 Oeste 0 920.4 0.2 27
2019-07-20 12:00:00 27.1 4 Norte 14 Norte 0 920.4 0.6 38
2019-07-20 11:00:00 24.2 4 Noroeste 10 Noroeste 0 920.4 0.7 48
2019-07-20 10:00:00 21.2 5 Norte 9 Noroeste 0 920.2 1 56
2019-07-20 09:00:00 17.1 2 Norte 5 Sur 0 919.8 0.9 71
2019-07-20 08:00:00 10.4 4 Sur 8 Sur 0 919.7 1 87
2019-07-20 07:00:00 10.4 3 Sur 6 Sur 0 919.2 0.6 85
2019-07-20 06:00:00 11.6 0 Calma 6 Sudoeste 0 918.9 0.6 83
2019-07-20 05:00:00 11.5 6 Sudeste 9 Sudeste 0 918.7 0.3 82
2019-07-20 04:00:00 13.2 5 Sur 10 Oeste 0 918.6 0.2 78
2019-07-20 03:00:00 15.4 2 Sur 8 Sur 0 918.3 0.1 72
2019-07-20 02:00:00 18 3 Norte 10 Norte 0 918.4 0.3 68
2019-07-20 01:00:00 21.5 10 Oeste 18 Oeste 0 918.4 0.8 52
2019-07-20 00:00:00 23.4 9 Oeste 18 Oeste 0 918.2 0.6 45
2019-07-19 23:00:00 24.2 9 Oeste 19 Noroeste 0 918.1 0.7 44
2019-07-19 22:00:00 25.5 9 Oeste 17 Noroeste 0 917.6 0.2 42
2019-07-19 21:00:00 29.3 9 Noroeste 22 Oeste 0 917.6 -0.2 30
2019-07-19 20:00:00 31 13 Oeste 31 Oeste 0 917.4 -0.6 22
2019-07-19 19:00:00 31.5 14 Oeste 36 Oeste 0 917.4 -1 20
2019-07-19 18:00:00 32 17 Sudoeste 36 Oeste 0 917.8 -1.1 19
2019-07-19 17:00:00 32 14 Oeste 36 Oeste 0 918 -1.4 21
2019-07-19 16:00:00 32 15 Sudoeste 36 Sudoeste 0 918.4 -1.4 20
2019-07-19 15:00:00 31.4 14 Sudoeste 34 Sudoeste 0 918.9 -1.5 19
2019-07-19 14:00:00 30.6 15 Sudoeste 28 Sudoeste 0 919.4 -1.4 21
2019-07-19 13:00:00 28.4 5 Sudoeste 13 Sudoeste 0 919.8 -1.5 34
2019-07-19 12:00:00 25.9 4 Este 12 Sudeste 0 920.4 -0.9 34
2019-07-19 11:00:00 22.9 6 Nordeste 12 Norte 0 920.8 -0.4 43
2019-07-19 10:00:00 20.7 4 Nordeste 11 Nordeste 0 921.3 0.1 50
2019-07-19 09:00:00 16.9 3 Sudeste 6 Este 0 921.3 0 67
2019-07-19 08:00:00 11.6 3 Sur 4 Sur 0 921.2 -0.4 84
2019-07-19 07:00:00 10.4 3 Sur 5 Sudoeste 0 921.2 -0.5 85
2019-07-19 06:00:00 11.9 2 Sudoeste 5 Sudeste 0 921.3 -0.5 80
2019-07-19 05:00:00 13.4 0 Calma 5 Norte 0 921.6 -0.1 76
2019-07-19 04:00:00 15.4 2 Oeste 7 Norte 0 921.7 0.3 69
2019-07-19 03:00:00 16 3 Noroeste 6 Nordeste 0 921.8 1 67
2019-07-19 02:00:00 17 2 Norte 8 Este 0 921.7 1.2 63
2019-07-19 01:00:00 17.1 5 Este 13 Este 0 921.4 1.5 63
2019-07-19 00:00:00 19.4 6 Sudoeste 8 Sudoeste 0 920.8 1.5 53